sensor_id;sensor_type;location;lat;lon;timestamp;P1;durP1;ratioP1;P2;durP2;ratioP2
10100;SDS011;5090;51.258;4.436;2023-04-03T00:01:15;11.83;;;8.80;;
10100;SDS011;5090;51.258;4.436;2023-04-03T00:03:43;16.10;;;8.63;;
10100;SDS011;5090;51.258;4.436;2023-04-03T00:06:12;12.60;;;8.57;;
10100;SDS011;5090;51.258;4.436;2023-04-03T00:08:40;12.63;;;8.60;;
10100;SDS011;5090;51.258;4.436;2023-04-03T00:11:08;13.90;;;8.47;;
10100;SDS011;5090;51.258;4.436;2023-04-03T00:13:37;16.03;;;9.17;;
10100;SDS011;5090;51.258;4.436;2023-04-03T00:16:05;15.27;;;8.10;;
10100;SDS011;5090;51.258;4.436;2023-04-03T00:18:33;12.20;;;8.47;;
10100;SDS011;5090;51.258;4.436;2023-04-03T00:21:02;12.03;;;8.37;;
10100;SDS011;5090;51.258;4.436;2023-04-03T00:23:30;13.23;;;8.10;;
10100;SDS011;5090;51.258;4.436;2023-04-03T00:25:58;10.73;;;8.60;;
10100;SDS011;5090;51.258;4.436;2023-04-03T00:28:26;10.63;;;8.33;;
10100;SDS011;5090;51.258;4.436;2023-04-03T00:30:55;11.20;;;8.50;;
10100;SDS011;5090;51.258;4.436;2023-04-03T00:33:24;10.17;;;7.70;;
10100;SDS011;5090;51.258;4.436;2023-04-03T00:35:52;9.90;;;8.37;;
10100;SDS011;5090;51.258;4.436;2023-04-03T00:38:20;14.73;;;9.37;;
10100;SDS011;5090;51.258;4.436;2023-04-03T00:40:49;13.40;;;8.17;;
10100;SDS011;5090;51.258;4.436;2023-04-03T00:43:21;10.23;;;8.50;;
10100;SDS011;5090;51.258;4.436;2023-04-03T00:45:48;11.40;;;8.67;;
10100;SDS011;5090;51.258;4.436;2023-04-03T00:48:17;13.30;;;8.97;;
10100;SDS011;5090;51.258;4.436;2023-04-03T00:50:44;11.87;;;8.83;;
10100;SDS011;5090;51.258;4.436;2023-04-03T00:53:13;13.97;;;8.23;;
10100;SDS011;5090;51.258;4.436;2023-04-03T00:55:40;10.70;;;8.17;;
10100;SDS011;5090;51.258;4.436;2023-04-03T00:58:08;15.33;;;8.33;;
10100;SDS011;5090;51.258;4.436;2023-04-03T01:00:37;10.67;;;8.40;;
10100;SDS011;5090;51.258;4.436;2023-04-03T01:03:05;14.03;;;7.70;;
10100;SDS011;5090;51.258;4.436;2023-04-03T01:05:33;10.20;;;7.57;;
10100;SDS011;5090;51.258;4.436;2023-04-03T01:08:01;8.93;;;7.73;;
10100;SDS011;5090;51.258;4.436;2023-04-03T01:10:29;12.43;;;7.27;;
10100;SDS011;5090;51.258;4.436;2023-04-03T01:12:58;8.77;;;7.33;;
10100;SDS011;5090;51.258;4.436;2023-04-03T01:15:26;11.00;;;7.63;;
10100;SDS011;5090;51.258;4.436;2023-04-03T01:17:55;11.60;;;8.17;;
10100;SDS011;5090;51.258;4.436;2023-04-03T01:20:35;11.63;;;7.67;;
10100;SDS011;5090;51.258;4.436;2023-04-03T01:23:13;8.23;;;7.13;;
10100;SDS011;5090;51.258;4.436;2023-04-03T01:25:41;13.57;;;7.47;;
10100;SDS011;5090;51.258;4.436;2023-04-03T01:28:09;12.47;;;7.10;;
10100;SDS011;5090;51.258;4.436;2023-04-03T01:30:43;11.50;;;7.20;;
10100;SDS011;5090;51.258;4.436;2023-04-03T01:33:08;10.10;;;7.27;;
10100;SDS011;5090;51.258;4.436;2023-04-03T01:35:37;10.63;;;6.40;;
10100;SDS011;5090;51.258;4.436;2023-04-03T01:38:04;10.90;;;7.47;;
10100;SDS011;5090;51.258;4.436;2023-04-03T01:40:32;11.30;;;7.13;;
10100;SDS011;5090;51.258;4.436;2023-04-03T01:43:00;10.33;;;6.80;;
10100;SDS011;5090;51.258;4.436;2023-04-03T01:45:29;9.90;;;6.37;;
10100;SDS011;5090;51.258;4.436;2023-04-03T01:47:57;9.43;;;7.00;;
10100;SDS011;5090;51.258;4.436;2023-04-03T01:50:29;9.93;;;7.50;;
10100;SDS011;5090;51.258;4.436;2023-04-03T01:52:57;8.83;;;7.13;;
10100;SDS011;5090;51.258;4.436;2023-04-03T01:55:34;11.70;;;7.10;;
10100;SDS011;5090;51.258;4.436;2023-04-03T01:58:04;10.90;;;7.90;;
10100;SDS011;5090;51.258;4.436;2023-04-03T02:00:32;9.00;;;7.30;;
10100;SDS011;5090;51.258;4.436;2023-04-03T02:03:00;9.53;;;6.80;;
10100;SDS011;5090;51.258;4.436;2023-04-03T02:05:28;10.80;;;7.70;;
10100;SDS011;5090;51.258;4.436;2023-04-03T02:07:57;10.20;;;7.37;;
10100;SDS011;5090;51.258;4.436;2023-04-03T02:10:25;10.23;;;6.97;;
10100;SDS011;5090;51.258;4.436;2023-04-03T02:12:53;11.53;;;8.03;;
10100;SDS011;5090;51.258;4.436;2023-04-03T02:15:21;9.93;;;7.47;;
10100;SDS011;5090;51.258;4.436;2023-04-03T02:17:50;13.57;;;7.97;;
10100;SDS011;5090;51.258;4.436;2023-04-03T02:20:18;12.97;;;7.73;;
10100;SDS011;5090;51.258;4.436;2023-04-03T02:22:46;10.70;;;7.60;;
10100;SDS011;5090;51.258;4.436;2023-04-03T02:25:14;11.20;;;7.20;;
10100;SDS011;5090;51.258;4.436;2023-04-03T02:27:43;11.97;;;8.33;;
10100;SDS011;5090;51.258;4.436;2023-04-03T02:30:11;9.83;;;7.83;;
10100;SDS011;5090;51.258;4.436;2023-04-03T02:32:40;11.53;;;8.30;;
10100;SDS011;5090;51.258;4.436;2023-04-03T02:35:08;9.70;;;7.90;;
10100;SDS011;5090;51.258;4.436;2023-04-03T02:37:36;12.83;;;7.97;;
10100;SDS011;5090;51.258;4.436;2023-04-03T02:40:04;11.27;;;8.37;;
10100;SDS011;5090;51.258;4.436;2023-04-03T02:42:33;13.67;;;8.33;;
10100;SDS011;5090;51.258;4.436;2023-04-03T02:45:06;11.07;;;8.23;;
10100;SDS011;5090;51.258;4.436;2023-04-03T02:47:34;12.07;;;8.80;;
10100;SDS011;5090;51.258;4.436;2023-04-03T02:50:02;14.10;;;9.07;;
10100;SDS011;5090;51.258;4.436;2023-04-03T02:52:31;12.63;;;8.20;;
10100;SDS011;5090;51.258;4.436;2023-04-03T02:54:59;11.00;;;8.40;;
10100;SDS011;5090;51.258;4.436;2023-04-03T02:57:27;10.10;;;8.33;;
10100;SDS011;5090;51.258;4.436;2023-04-03T02:59:56;13.40;;;9.33;;
10100;SDS011;5090;51.258;4.436;2023-04-03T03:02:24;11.97;;;8.87;;
10100;SDS011;5090;51.258;4.436;2023-04-03T03:04:52;12.67;;;9.13;;
10100;SDS011;5090;51.258;4.436;2023-04-03T03:07:20;13.77;;;9.43;;
10100;SDS011;5090;51.258;4.436;2023-04-03T03:09:49;12.80;;;9.40;;
10100;SDS011;5090;51.258;4.436;2023-04-03T03:12:17;16.13;;;9.40;;
10100;SDS011;5090;51.258;4.436;2023-04-03T03:14:47;13.03;;;8.87;;
10100;SDS011;5090;51.258;4.436;2023-04-03T03:17:15;12.30;;;9.03;;
10100;SDS011;5090;51.258;4.436;2023-04-03T03:19:43;16.17;;;8.47;;
10100;SDS011;5090;51.258;4.436;2023-04-03T03:22:12;15.33;;;8.83;;
10100;SDS011;5090;51.258;4.436;2023-04-03T03:24:40;14.50;;;8.93;;
10100;SDS011;5090;51.258;4.436;2023-04-03T03:27:08;11.67;;;9.30;;
10100;SDS011;5090;51.258;4.436;2023-04-03T03:29:36;13.60;;;9.00;;
10100;SDS011;5090;51.258;4.436;2023-04-03T03:32:05;14.73;;;9.40;;
10100;SDS011;5090;51.258;4.436;2023-04-03T03:34:33;12.33;;;9.23;;
10100;SDS011;5090;51.258;4.436;2023-04-03T03:37:01;10.43;;;8.87;;
10100;SDS011;5090;51.258;4.436;2023-04-03T03:39:29;14.07;;;9.27;;
10100;SDS011;5090;51.258;4.436;2023-04-03T03:41:58;14.20;;;9.17;;
10100;SDS011;5090;51.258;4.436;2023-04-03T03:44:26;10.83;;;8.87;;
10100;SDS011;5090;51.258;4.436;2023-04-03T03:46:54;16.80;;;10.13;;
10100;SDS011;5090;51.258;4.436;2023-04-03T03:49:22;14.90;;;9.47;;
10100;SDS011;5090;51.258;4.436;2023-04-03T03:51:51;13.43;;;8.83;;
10100;SDS011;5090;51.258;4.436;2023-04-03T03:54:19;11.93;;;8.97;;
10100;SDS011;5090;51.258;4.436;2023-04-03T03:56:47;13.60;;;8.93;;
10100;SDS011;5090;51.258;4.436;2023-04-03T03:59:16;12.40;;;9.13;;
10100;SDS011;5090;51.258;4.436;2023-04-03T04:01:45;14.67;;;9.90;;
10100;SDS011;5090;51.258;4.436;2023-04-03T04:04:13;13.30;;;9.33;;
10100;SDS011;5090;51.258;4.436;2023-04-03T04:06:41;13.33;;;9.33;;
10100;SDS011;5090;51.258;4.436;2023-04-03T04:09:09;10.23;;;8.30;;
10100;SDS011;5090;51.258;4.436;2023-04-03T04:11:38;12.10;;;9.80;;
10100;SDS011;5090;51.258;4.436;2023-04-03T04:14:06;14.13;;;9.27;;
10100;SDS011;5090;51.258;4.436;2023-04-03T04:16:34;12.03;;;9.03;;
10100;SDS011;5090;51.258;4.436;2023-04-03T04:19:03;13.40;;;9.90;;
10100;SDS011;5090;51.258;4.436;2023-04-03T04:21:32;15.17;;;9.23;;
10100;SDS011;5090;51.258;4.436;2023-04-03T04:24:00;16.27;;;9.10;;
10100;SDS011;5090;51.258;4.436;2023-04-03T04:26:28;12.20;;;8.70;;
10100;SDS011;5090;51.258;4.436;2023-04-03T04:28:56;15.97;;;9.50;;
10100;SDS011;5090;51.258;4.436;2023-04-03T04:31:25;14.97;;;9.17;;
10100;SDS011;5090;51.258;4.436;2023-04-03T04:33:53;15.13;;;9.70;;
10100;SDS011;5090;51.258;4.436;2023-04-03T04:36:21;15.70;;;8.90;;
10100;SDS011;5090;51.258;4.436;2023-04-03T04:38:49;12.57;;;8.90;;
10100;SDS011;5090;51.258;4.436;2023-04-03T04:41:19;13.37;;;9.77;;
10100;SDS011;5090;51.258;4.436;2023-04-03T04:43:47;11.63;;;8.80;;
10100;SDS011;5090;51.258;4.436;2023-04-03T04:46:15;13.47;;;8.73;;
10100;SDS011;5090;51.258;4.436;2023-04-03T04:48:43;15.47;;;8.80;;
10100;SDS011;5090;51.258;4.436;2023-04-03T04:51:11;12.83;;;8.97;;
10100;SDS011;5090;51.258;4.436;2023-04-03T04:53:40;16.00;;;9.40;;
10100;SDS011;5090;51.258;4.436;2023-04-03T04:56:08;17.70;;;9.30;;
10100;SDS011;5090;51.258;4.436;2023-04-03T04:58:36;12.97;;;8.70;;
10100;SDS011;5090;51.258;4.436;2023-04-03T05:01:05;13.40;;;8.57;;
10100;SDS011;5090;51.258;4.436;2023-04-03T05:03:33;13.03;;;8.83;;
10100;SDS011;5090;51.258;4.436;2023-04-03T05:06:01;14.67;;;8.73;;
10100;SDS011;5090;51.258;4.436;2023-04-03T05:08:29;14.83;;;9.30;;
10100;SDS011;5090;51.258;4.436;2023-04-03T05:10:57;11.53;;;9.40;;
10100;SDS011;5090;51.258;4.436;2023-04-03T05:13:26;10.83;;;8.30;;
10100;SDS011;5090;51.258;4.436;2023-04-03T05:15:54;15.47;;;9.33;;
10100;SDS011;5090;51.258;4.436;2023-04-03T05:18:23;14.27;;;9.20;;
10100;SDS011;5090;51.258;4.436;2023-04-03T05:20:51;15.77;;;9.13;;
10100;SDS011;5090;51.258;4.436;2023-04-03T05:23:19;16.23;;;9.43;;
10100;SDS011;5090;51.258;4.436;2023-04-03T05:25:48;16.23;;;8.90;;
10100;SDS011;5090;51.258;4.436;2023-04-03T05:28:16;24.03;;;10.27;;
10100;SDS011;5090;51.258;4.436;2023-04-03T05:30:44;12.47;;;9.40;;
10100;SDS011;5090;51.258;4.436;2023-04-03T05:33:12;18.13;;;8.70;;
10100;SDS011;5090;51.258;4.436;2023-04-03T05:35:41;11.03;;;8.60;;
10100;SDS011;5090;51.258;4.436;2023-04-03T05:38:09;11.40;;;8.87;;
10100;SDS011;5090;51.258;4.436;2023-04-03T05:40:37;11.60;;;9.17;;
10100;SDS011;5090;51.258;4.436;2023-04-03T05:43:05;13.63;;;9.00;;
10100;SDS011;5090;51.258;4.436;2023-04-03T05:45:34;12.30;;;9.00;;
10100;SDS011;5090;51.258;4.436;2023-04-03T05:48:02;12.03;;;8.60;;
10100;SDS011;5090;51.258;4.436;2023-04-03T05:50:30;13.83;;;9.60;;
10100;SDS011;5090;51.258;4.436;2023-04-03T05:52:58;12.57;;;9.67;;
10100;SDS011;5090;51.258;4.436;2023-04-03T05:55:26;13.13;;;9.10;;
10100;SDS011;5090;51.258;4.436;2023-04-03T05:57:55;12.77;;;8.97;;
10100;SDS011;5090;51.258;4.436;2023-04-03T06:00:23;12.50;;;8.93;;
10100;SDS011;5090;51.258;4.436;2023-04-03T06:02:51;18.70;;;9.10;;
10100;SDS011;5090;51.258;4.436;2023-04-03T06:05:19;12.33;;;8.93;;
10100;SDS011;5090;51.258;4.436;2023-04-03T06:07:48;16.90;;;9.80;;
10100;SDS011;5090;51.258;4.436;2023-04-03T06:10:16;13.40;;;10.43;;
10100;SDS011;5090;51.258;4.436;2023-04-03T06:12:44;15.03;;;10.73;;
10100;SDS011;5090;51.258;4.436;2023-04-03T06:15:12;16.83;;;10.87;;
10100;SDS011;5090;51.258;4.436;2023-04-03T06:17:41;13.67;;;9.80;;
10100;SDS011;5090;51.258;4.436;2023-04-03T06:20:09;12.63;;;9.00;;
10100;SDS011;5090;51.258;4.436;2023-04-03T06:22:37;10.00;;;7.90;;
10100;SDS011;5090;51.258;4.436;2023-04-03T06:25:06;10.37;;;6.43;;
10100;SDS011;5090;51.258;4.436;2023-04-03T06:27:34;8.63;;;6.03;;
10100;SDS011;5090;51.258;4.436;2023-04-03T06:30:03;9.83;;;5.70;;
10100;SDS011;5090;51.258;4.436;2023-04-03T06:32:32;8.37;;;5.13;;
10100;SDS011;5090;51.258;4.436;2023-04-03T06:35:00;7.57;;;5.40;;
10100;SDS011;5090;51.258;4.436;2023-04-03T06:37:28;6.60;;;4.97;;
10100;SDS011;5090;51.258;4.436;2023-04-03T06:39:57;7.80;;;5.30;;
10100;SDS011;5090;51.258;4.436;2023-04-03T06:42:25;8.63;;;5.30;;
10100;SDS011;5090;51.258;4.436;2023-04-03T06:44:54;6.70;;;4.70;;
10100;SDS011;5090;51.258;4.436;2023-04-03T06:47:22;6.97;;;5.00;;
10100;SDS011;5090;51.258;4.436;2023-04-03T06:49:50;5.20;;;4.63;;
10100;SDS011;5090;51.258;4.436;2023-04-03T06:52:18;7.03;;;4.40;;
10100;SDS011;5090;51.258;4.436;2023-04-03T06:54:46;7.33;;;4.23;;
10100;SDS011;5090;51.258;4.436;2023-04-03T06:57:15;5.43;;;4.17;;
10100;SDS011;5090;51.258;4.436;2023-04-03T06:59:43;7.43;;;4.43;;
10100;SDS011;5090;51.258;4.436;2023-04-03T07:02:11;12.07;;;5.33;;
10100;SDS011;5090;51.258;4.436;2023-04-03T07:04:39;6.27;;;4.83;;
10100;SDS011;5090;51.258;4.436;2023-04-03T07:07:07;6.67;;;3.87;;
10100;SDS011;5090;51.258;4.436;2023-04-03T07:09:36;5.27;;;3.57;;
10100;SDS011;5090;51.258;4.436;2023-04-03T07:12:04;6.87;;;3.80;;
10100;SDS011;5090;51.258;4.436;2023-04-03T07:14:32;7.90;;;3.67;;
10100;SDS011;5090;51.258;4.436;2023-04-03T07:17:00;5.43;;;3.57;;
10100;SDS011;5090;51.258;4.436;2023-04-03T07:19:28;3.97;;;3.00;;
10100;SDS011;5090;51.258;4.436;2023-04-03T07:21:57;7.73;;;3.50;;
10100;SDS011;5090;51.258;4.436;2023-04-03T07:24:26;7.83;;;2.77;;
10100;SDS011;5090;51.258;4.436;2023-04-03T07:26:54;8.73;;;4.00;;
10100;SDS011;5090;51.258;4.436;2023-04-03T07:29:22;8.77;;;3.50;;
10100;SDS011;5090;51.258;4.436;2023-04-03T07:31:50;5.67;;;3.23;;
10100;SDS011;5090;51.258;4.436;2023-04-03T07:34:19;5.83;;;2.70;;
10100;SDS011;5090;51.258;4.436;2023-04-03T07:36:47;4.33;;;2.90;;
10100;SDS011;5090;51.258;4.436;2023-04-03T07:39:15;7.00;;;3.33;;
10100;SDS011;5090;51.258;4.436;2023-04-03T07:41:43;5.67;;;2.77;;
10100;SDS011;5090;51.258;4.436;2023-04-03T07:44:12;4.50;;;2.67;;
10100;SDS011;5090;51.258;4.436;2023-04-03T07:46:41;3.97;;;2.60;;
10100;SDS011;5090;51.258;4.436;2023-04-03T07:49:09;6.47;;;3.23;;
10100;SDS011;5090;51.258;4.436;2023-04-03T07:51:37;6.03;;;2.40;;
10100;SDS011;5090;51.258;4.436;2023-04-03T07:54:05;3.80;;;2.20;;
10100;SDS011;5090;51.258;4.436;2023-04-03T07:56:33;3.97;;;2.33;;
10100;SDS011;5090;51.258;4.436;2023-04-03T07:59:02;4.93;;;2.50;;
10100;SDS011;5090;51.258;4.436;2023-04-03T08:01:30;6.97;;;4.10;;
10100;SDS011;5090;51.258;4.436;2023-04-03T08:03:59;5.23;;;2.60;;
10100;SDS011;5090;51.258;4.436;2023-04-03T08:06:27;4.70;;;2.27;;
10100;SDS011;5090;51.258;4.436;2023-04-03T08:08:55;4.77;;;2.20;;
10100;SDS011;5090;51.258;4.436;2023-04-03T08:11:23;3.57;;;2.17;;
10100;SDS011;5090;51.258;4.436;2023-04-03T08:13:52;4.27;;;2.43;;
10100;SDS011;5090;51.258;4.436;2023-04-03T08:16:20;3.80;;;2.20;;
10100;SDS011;5090;51.258;4.436;2023-04-03T08:18:48;4.73;;;2.00;;
10100;SDS011;5090;51.258;4.436;2023-04-03T08:21:16;3.10;;;1.97;;
10100;SDS011;5090;51.258;4.436;2023-04-03T08:23:44;4.20;;;1.97;;
10100;SDS011;5090;51.258;4.436;2023-04-03T08:26:13;3.80;;;1.90;;
10100;SDS011;5090;51.258;4.436;2023-04-03T08:28:41;5.90;;;2.30;;
10100;SDS011;5090;51.258;4.436;2023-04-03T08:31:10;4.07;;;2.00;;
10100;SDS011;5090;51.258;4.436;2023-04-03T08:33:37;4.53;;;2.00;;
10100;SDS011;5090;51.258;4.436;2023-04-03T08:36:07;2.83;;;1.73;;
10100;SDS011;5090;51.258;4.436;2023-04-03T08:38:34;4.30;;;1.87;;
10100;SDS011;5090;51.258;4.436;2023-04-03T08:41:04;4.37;;;1.90;;
10100;SDS011;5090;51.258;4.436;2023-04-03T08:43:38;2.97;;;1.77;;
10100;SDS011;5090;51.258;4.436;2023-04-03T08:46:05;4.10;;;1.70;;
10100;SDS011;5090;51.258;4.436;2023-04-03T08:48:34;4.27;;;1.87;;
10100;SDS011;5090;51.258;4.436;2023-04-03T08:51:03;5.33;;;1.77;;
10100;SDS011;5090;51.258;4.436;2023-04-03T08:53:30;3.23;;;1.70;;
10100;SDS011;5090;51.258;4.436;2023-04-03T08:55:57;3.33;;;1.30;;
10100;SDS011;5090;51.258;4.436;2023-04-03T08:58:27;3.70;;;1.80;;
10100;SDS011;5090;51.258;4.436;2023-04-03T09:03:30;3.17;;;1.33;;
10100;SDS011;5090;51.258;4.436;2023-04-03T09:06:05;2.83;;;1.87;;
10100;SDS011;5090;51.258;4.436;2023-04-03T09:08:33;3.10;;;1.40;;
10100;SDS011;5090;51.258;4.436;2023-04-03T09:13:49;3.07;;;1.37;;
10100;SDS011;5090;51.258;4.436;2023-04-03T09:16:20;3.43;;;1.53;;
10100;SDS011;5090;51.258;4.436;2023-04-03T09:18:48;2.97;;;1.63;;
10100;SDS011;5090;51.258;4.436;2023-04-03T09:21:17;3.60;;;1.50;;
10100;SDS011;5090;51.258;4.436;2023-04-03T09:23:46;3.70;;;1.50;;
10100;SDS011;5090;51.258;4.436;2023-04-03T09:26:15;5.37;;;2.00;;
10100;SDS011;5090;51.258;4.436;2023-04-03T09:28:42;6.07;;;1.40;;
10100;SDS011;5090;51.258;4.436;2023-04-03T09:31:14;4.80;;;1.87;;
10100;SDS011;5090;51.258;4.436;2023-04-03T09:33:39;5.07;;;1.77;;
10100;SDS011;5090;51.258;4.436;2023-04-03T09:36:07;2.97;;;1.53;;
10100;SDS011;5090;51.258;4.436;2023-04-03T09:38:36;3.43;;;1.87;;
10100;SDS011;5090;51.258;4.436;2023-04-03T09:41:05;3.13;;;1.63;;
10100;SDS011;5090;51.258;4.436;2023-04-03T09:43:33;4.37;;;1.60;;
10100;SDS011;5090;51.258;4.436;2023-04-03T09:46:18;1.77;;;1.33;;
10100;SDS011;5090;51.258;4.436;2023-04-03T09:48:52;3.57;;;1.40;;
10100;SDS011;5090;51.258;4.436;2023-04-03T09:51:19;1.90;;;1.30;;
10100;SDS011;5090;51.258;4.436;2023-04-03T09:53:47;3.90;;;1.67;;
10100;SDS011;5090;51.258;4.436;2023-04-03T09:56:19;2.43;;;1.60;;
10100;SDS011;5090;51.258;4.436;2023-04-03T09:58:48;5.47;;;1.40;;
10100;SDS011;5090;51.258;4.436;2023-04-03T10:04:05;3.43;;;1.53;;
10100;SDS011;5090;51.258;4.436;2023-04-03T10:06:32;3.40;;;1.70;;
10100;SDS011;5090;51.258;4.436;2023-04-03T10:09:00;3.17;;;1.37;;
10100;SDS011;5090;51.258;4.436;2023-04-03T10:11:28;2.43;;;1.10;;
10100;SDS011;5090;51.258;4.436;2023-04-03T10:13:57;4.43;;;1.33;;
10100;SDS011;5090;51.258;4.436;2023-04-03T10:16:29;6.63;;;1.67;;
10100;SDS011;5090;51.258;4.436;2023-04-03T10:19:02;4.43;;;1.53;;
10100;SDS011;5090;51.258;4.436;2023-04-03T10:24:09;2.97;;;1.37;;
10100;SDS011;5090;51.258;4.436;2023-04-03T10:26:41;1.93;;;1.00;;
10100;SDS011;5090;51.258;4.436;2023-04-03T10:30:19;5.37;;;1.87;;
10100;SDS011;5090;51.258;4.436;2023-04-03T10:34:30;3.47;;;1.03;;
10100;SDS011;5090;51.258;4.436;2023-04-03T10:37:01;2.63;;;1.27;;
10100;SDS011;5090;51.258;4.436;2023-04-03T10:39:30;6.33;;;1.33;;
10100;SDS011;5090;51.258;4.436;2023-04-03T10:42:00;2.03;;;1.10;;
10100;SDS011;5090;51.258;4.436;2023-04-03T10:44:30;2.00;;;1.03;;
10100;SDS011;5090;51.258;4.436;2023-04-03T10:46:58;1.83;;;1.00;;
10100;SDS011;5090;51.258;4.436;2023-04-03T10:49:28;2.90;;;0.90;;
10100;SDS011;5090;51.258;4.436;2023-04-03T10:54:38;2.20;;;0.80;;
10100;SDS011;5090;51.258;4.436;2023-04-03T10:57:07;2.60;;;1.87;;
10100;SDS011;5090;51.258;4.436;2023-04-03T10:59:35;1.70;;;1.07;;
10100;SDS011;5090;51.258;4.436;2023-04-03T11:02:14;2.10;;;1.10;;
10100;SDS011;5090;51.258;4.436;2023-04-03T11:04:43;2.37;;;1.10;;
10100;SDS011;5090;51.258;4.436;2023-04-03T11:07:15;1.67;;;1.03;;
10100;SDS011;5090;51.258;4.436;2023-04-03T11:09:41;2.50;;;1.40;;
10100;SDS011;5090;51.258;4.436;2023-04-03T11:12:11;4.27;;;1.07;;
10100;SDS011;5090;51.258;4.436;2023-04-03T11:14:38;1.60;;;0.80;;
10100;SDS011;5090;51.258;4.436;2023-04-03T11:17:11;2.13;;;0.70;;
10100;SDS011;5090;51.258;4.436;2023-04-03T11:19:37;1.33;;;0.83;;
10100;SDS011;5090;51.258;4.436;2023-04-03T11:22:08;1.57;;;0.73;;
10100;SDS011;5090;51.258;4.436;2023-04-03T11:24:34;1.57;;;0.87;;
10100;SDS011;5090;51.258;4.436;2023-04-03T11:27:02;1.57;;;0.80;;
10100;SDS011;5090;51.258;4.436;2023-04-03T11:29:32;5.40;;;1.03;;
10100;SDS011;5090;51.258;4.436;2023-04-03T11:34:37;1.23;;;0.93;;
10100;SDS011;5090;51.258;4.436;2023-04-03T11:37:05;2.77;;;1.00;;
10100;SDS011;5090;51.258;4.436;2023-04-03T11:39:33;2.17;;;0.93;;
10100;SDS011;5090;51.258;4.436;2023-04-03T11:44:35;1.77;;;1.00;;
10100;SDS011;5090;51.258;4.436;2023-04-03T11:47:03;1.87;;;1.00;;
10100;SDS011;5090;51.258;4.436;2023-04-03T11:52:09;2.70;;;1.33;;
10100;SDS011;5090;51.258;4.436;2023-04-03T11:54:35;2.40;;;1.00;;
10100;SDS011;5090;51.258;4.436;2023-04-03T11:59:45;1.43;;;0.70;;
10100;SDS011;5090;51.258;4.436;2023-04-03T12:05:24;1.40;;;0.77;;
10100;SDS011;5090;51.258;4.436;2023-04-03T12:07:18;2.60;;;1.20;;
10100;SDS011;5090;51.258;4.436;2023-04-03T12:09:54;2.43;;;0.63;;
10100;SDS011;5090;51.258;4.436;2023-04-03T12:12:28;3.57;;;0.87;;
10100;SDS011;5090;51.258;4.436;2023-04-03T12:14:52;1.27;;;0.90;;
10100;SDS011;5090;51.258;4.436;2023-04-03T12:17:22;1.07;;;0.90;;
10100;SDS011;5090;51.258;4.436;2023-04-03T12:19:49;2.83;;;0.90;;
10100;SDS011;5090;51.258;4.436;2023-04-03T12:22:18;0.87;;;0.60;;
10100;SDS011;5090;51.258;4.436;2023-04-03T12:24:46;2.93;;;0.80;;
10100;SDS011;5090;51.258;4.436;2023-04-03T12:27:18;3.50;;;0.80;;
10100;SDS011;5090;51.258;4.436;2023-04-03T12:29:47;1.40;;;0.80;;
10100;SDS011;5090;51.258;4.436;2023-04-03T12:32:17;2.47;;;0.90;;
10100;SDS011;5090;51.258;4.436;2023-04-03T12:34:49;1.93;;;0.87;;
10100;SDS011;5090;51.258;4.436;2023-04-03T12:37:21;1.50;;;1.03;;
10100;SDS011;5090;51.258;4.436;2023-04-03T12:39:52;1.17;;;1.07;;
10100;SDS011;5090;51.258;4.436;2023-04-03T12:43:28;1.20;;;1.00;;
10100;SDS011;5090;51.258;4.436;2023-04-03T12:45:09;1.17;;;0.70;;
10100;SDS011;5090;51.258;4.436;2023-04-03T12:47:33;3.77;;;1.17;;
10100;SDS011;5090;51.258;4.436;2023-04-03T12:50:00;1.13;;;1.00;;
10100;SDS011;5090;51.258;4.436;2023-04-03T12:52:31;3.17;;;0.90;;
10100;SDS011;5090;51.258;4.436;2023-04-03T12:54:58;1.27;;;1.00;;
10100;SDS011;5090;51.258;4.436;2023-04-03T12:57:27;1.23;;;0.77;;
10100;SDS011;5090;51.258;4.436;2023-04-03T12:59:55;5.50;;;1.10;;
10100;SDS011;5090;51.258;4.436;2023-04-03T13:02:26;1.67;;;1.00;;
10100;SDS011;5090;51.258;4.436;2023-04-03T13:04:57;2.93;;;1.00;;
10100;SDS011;5090;51.258;4.436;2023-04-03T13:07:30;3.37;;;1.03;;
10100;SDS011;5090;51.258;4.436;2023-04-03T13:10:00;0.97;;;0.87;;
10100;SDS011;5090;51.258;4.436;2023-04-03T13:12:27;0.87;;;0.80;;
10100;SDS011;5090;51.258;4.436;2023-04-03T13:14:56;1.23;;;0.67;;
10100;SDS011;5090;51.258;4.436;2023-04-03T13:17:24;3.40;;;0.90;;
10100;SDS011;5090;51.258;4.436;2023-04-03T13:19:52;3.97;;;0.70;;
10100;SDS011;5090;51.258;4.436;2023-04-03T13:22:25;4.03;;;1.10;;
10100;SDS011;5090;51.258;4.436;2023-04-03T13:24:51;1.97;;;1.03;;
10100;SDS011;5090;51.258;4.436;2023-04-03T13:27:19;1.80;;;0.97;;
10100;SDS011;5090;51.258;4.436;2023-04-03T13:29:49;1.43;;;0.90;;
10100;SDS011;5090;51.258;4.436;2023-04-03T13:32:19;1.40;;;0.80;;
10100;SDS011;5090;51.258;4.436;2023-04-03T13:34:46;1.60;;;0.80;;
10100;SDS011;5090;51.258;4.436;2023-04-03T13:37:22;2.30;;;0.63;;
10100;SDS011;5090;51.258;4.436;2023-04-03T13:39:56;0.77;;;0.77;;
10100;SDS011;5090;51.258;4.436;2023-04-03T13:42:22;1.40;;;1.07;;
10100;SDS011;5090;51.258;4.436;2023-04-03T13:44:45;1.33;;;0.83;;
10100;SDS011;5090;51.258;4.436;2023-04-03T13:47:15;1.20;;;0.80;;
10100;SDS011;5090;51.258;4.436;2023-04-03T13:49:43;0.63;;;0.60;;
10100;SDS011;5090;51.258;4.436;2023-04-03T13:54:45;3.07;;;0.80;;
10100;SDS011;5090;51.258;4.436;2023-04-03T13:57:13;2.40;;;0.90;;
10100;SDS011;5090;51.258;4.436;2023-04-03T13:59:40;1.50;;;1.07;;
10100;SDS011;5090;51.258;4.436;2023-04-03T14:04:53;1.60;;;0.60;;
10100;SDS011;5090;51.258;4.436;2023-04-03T14:07:20;0.80;;;0.70;;
10100;SDS011;5090;51.258;4.436;2023-04-03T14:09:48;0.97;;;0.53;;
10100;SDS011;5090;51.258;4.436;2023-04-03T14:12:18;1.30;;;0.87;;
10100;SDS011;5090;51.258;4.436;2023-04-03T14:14:45;1.90;;;0.77;;
10100;SDS011;5090;51.258;4.436;2023-04-03T14:17:15;4.87;;;1.10;;
10100;SDS011;5090;51.258;4.436;2023-04-03T14:19:41;2.13;;;0.90;;
10100;SDS011;5090;51.258;4.436;2023-04-03T14:22:14;2.97;;;0.67;;
10100;SDS011;5090;51.258;4.436;2023-04-03T14:24:40;2.73;;;0.90;;
10100;SDS011;5090;51.258;4.436;2023-04-03T14:27:12;1.10;;;0.83;;
10100;SDS011;5090;51.258;4.436;2023-04-03T14:29:37;1.37;;;0.93;;
10100;SDS011;5090;51.258;4.436;2023-04-03T14:32:05;1.57;;;1.37;;
10100;SDS011;5090;51.258;4.436;2023-04-03T14:34:33;4.00;;;0.70;;
10100;SDS011;5090;51.258;4.436;2023-04-03T14:37:02;2.17;;;0.80;;
10100;SDS011;5090;51.258;4.436;2023-04-03T14:39:30;3.23;;;0.80;;
10100;SDS011;5090;51.258;4.436;2023-04-03T14:41:58;1.60;;;1.07;;
10100;SDS011;5090;51.258;4.436;2023-04-03T14:44:26;4.37;;;1.00;;
10100;SDS011;5090;51.258;4.436;2023-04-03T14:46:55;2.30;;;0.80;;
10100;SDS011;5090;51.258;4.436;2023-04-03T14:49:26;2.10;;;1.00;;
10100;SDS011;5090;51.258;4.436;2023-04-03T14:51:52;1.57;;;0.70;;
10100;SDS011;5090;51.258;4.436;2023-04-03T14:54:21;1.50;;;0.73;;
10100;SDS011;5090;51.258;4.436;2023-04-03T14:56:48;1.00;;;0.70;;
10100;SDS011;5090;51.258;4.436;2023-04-03T14:59:17;3.00;;;0.83;;
10100;SDS011;5090;51.258;4.436;2023-04-03T15:01:45;2.07;;;0.93;;
10100;SDS011;5090;51.258;4.436;2023-04-03T15:04:13;2.40;;;0.70;;
10100;SDS011;5090;51.258;4.436;2023-04-03T15:06:41;1.50;;;0.73;;
10100;SDS011;5090;51.258;4.436;2023-04-03T15:09:15;1.83;;;0.90;;
10100;SDS011;5090;51.258;4.436;2023-04-03T15:11:39;0.93;;;0.80;;
10100;SDS011;5090;51.258;4.436;2023-04-03T15:14:08;1.77;;;0.80;;
10100;SDS011;5090;51.258;4.436;2023-04-03T15:16:36;1.27;;;0.87;;
10100;SDS011;5090;51.258;4.436;2023-04-03T15:19:04;3.10;;;0.97;;
10100;SDS011;5090;51.258;4.436;2023-04-03T15:21:32;2.00;;;0.80;;
10100;SDS011;5090;51.258;4.436;2023-04-03T15:24:00;2.63;;;1.30;;
10100;SDS011;5090;51.258;4.436;2023-04-03T15:26:29;1.80;;;1.00;;
10100;SDS011;5090;51.258;4.436;2023-04-03T15:28:57;0.90;;;0.80;;
10100;SDS011;5090;51.258;4.436;2023-04-03T15:31:25;2.13;;;1.03;;
10100;SDS011;5090;51.258;4.436;2023-04-03T15:33:53;1.73;;;0.90;;
10100;SDS011;5090;51.258;4.436;2023-04-03T15:36:22;2.33;;;1.27;;
10100;SDS011;5090;51.258;4.436;2023-04-03T15:38:50;2.33;;;1.10;;